createdAt,value
2019-04-20T00:00:37.195Z,6.30
2019-04-20T00:01:33.968Z,6.20
2019-04-20T00:02:32.051Z,6.00
2019-04-20T00:03:38.044Z,6.00
2019-04-20T00:04:34.258Z,6.20
2019-04-20T00:05:33.019Z,6.00
2019-04-20T00:06:40.621Z,5.90
2019-04-20T00:07:34.715Z,5.60
2019-04-20T00:08:34.835Z,6.00
2019-04-20T00:09:36.525Z,6.20
2019-04-20T00:10:42.504Z,6.60
2019-04-20T00:11:45.915Z,6.30
2019-04-20T00:12:44.540Z,6.30
2019-04-20T00:13:43.774Z,6.80
2019-04-20T00:14:34.554Z,7.20
2019-04-20T00:15:32.326Z,7.00
2019-04-20T00:16:31.943Z,6.70
2019-04-20T00:17:32.733Z,6.70
2019-04-20T00:18:38.443Z,6.90
2019-04-20T00:19:39.125Z,6.30
2019-04-20T00:20:35.272Z,6.20
2019-04-20T00:21:33.912Z,6.60
2019-04-20T00:22:39.328Z,6.60
2019-04-20T00:23:36.770Z,7.80
2019-04-20T00:24:35.403Z,7.50
2019-04-20T00:25:41.717Z,7.60
2019-04-20T00:27:02.047Z,7.40
2019-04-20T00:27:55.711Z,7.30
2019-04-20T00:28:51.076Z,7.20
2019-04-20T00:29:51.749Z,6.90
2019-04-20T00:30:51.859Z,7.00
2019-04-20T00:31:45.855Z,7.00
2019-04-20T00:32:46.576Z,6.70
2019-04-20T00:33:44.870Z,8.00
2019-04-20T00:34:37.233Z,7.00
2019-04-20T00:35:31.797Z,6.70
2019-04-20T00:36:32.788Z,7.30
2019-04-20T00:37:31.945Z,6.90
2019-04-20T00:38:36.534Z,6.80
2019-04-20T00:39:32.009Z,7.20
2019-04-20T00:40:32.638Z,6.50
2019-04-20T00:41:35.091Z,6.40
2019-04-20T00:42:39.157Z,6.40
2019-04-20T00:43:35.656Z,7.10
2019-04-20T00:44:35.824Z,6.70
2019-04-20T00:45:33.768Z,6.00
2019-04-20T00:46:39.713Z,6.10
2019-04-20T00:47:43.268Z,6.70
2019-04-20T00:48:41.681Z,6.10
2019-04-20T00:49:44.490Z,6.90
2019-04-20T00:50:47.061Z,6.00
2019-04-20T00:51:49.139Z,6.70
2019-04-20T00:52:47.117Z,6.50
2019-04-20T00:53:39.262Z,6.20
2019-04-20T00:54:32.540Z,6.50
2019-04-20T00:55:31.788Z,6.20
2019-04-20T00:56:32.890Z,6.50
2019-04-20T00:57:43.048Z,6.00
2019-04-20T00:58:42.124Z,6.10
2019-04-20T00:59:51.757Z,6.10
2019-04-20T01:00:48.393Z,6.00
2019-04-20T01:01:55.868Z,6.50
2019-04-20T01:02:45.499Z,5.80
2019-04-20T01:03:48.645Z,5.80
2019-04-20T01:04:54.032Z,5.80
2019-04-20T01:05:53.529Z,5.90
2019-04-20T01:06:46.749Z,5.70
2019-04-20T01:07:38.583Z,6.20
2019-04-20T01:08:31.800Z,6.50
2019-04-20T01:09:31.491Z,6.50
2019-04-20T01:10:38.272Z,6.30
2019-04-20T01:11:36.753Z,6.10
2019-04-20T01:12:33.826Z,6.00
2019-04-20T01:13:31.774Z,6.10
2019-04-20T01:14:41.567Z,6.20
2019-04-20T01:15:38.786Z,6.20
2019-04-20T01:16:40.060Z,6.00
2019-04-20T01:17:31.443Z,6.50
2019-04-20T01:18:31.429Z,6.10
2019-04-20T01:19:31.413Z,6.30
2019-04-20T01:20:31.392Z,6.10
2019-04-20T01:21:33.437Z,6.00
2019-04-20T01:22:42.742Z,6.40
2019-04-20T01:23:38.272Z,5.80
2019-04-20T01:24:35.349Z,6.50
2019-04-20T01:25:36.002Z,6.30
2019-04-20T01:26:31.418Z,5.60
2019-04-20T01:27:42.197Z,5.80
2019-04-20T01:28:46.343Z,6.30
2019-04-20T01:29:39.293Z,5.20
2019-04-20T01:30:37.775Z,5.80
2019-04-20T01:31:38.551Z,6.00
2019-04-20T01:32:41.907Z,6.10
2019-04-20T01:33:43.809Z,5.50
2019-04-20T01:34:42.735Z,5.50
2019-04-20T01:35:48.131Z,6.20
2019-04-20T01:36:46.140Z,6.40
2019-04-20T01:37:52.222Z,6.70
2019-04-20T01:38:47.369Z,6.00
2019-04-20T01:39:37.106Z,6.30
2019-04-20T01:40:31.637Z,6.10
2019-04-20T01:41:31.226Z,6.60
2019-04-20T01:42:32.113Z,6.70
2019-04-20T01:43:31.256Z,6.80
2019-04-20T01:44:38.063Z,6.30
2019-04-20T01:45:35.710Z,6.70
2019-04-20T01:46:32.141Z,6.50
2019-04-20T01:47:38.906Z,7.00
2019-04-20T01:48:35.041Z,6.80
2019-04-20T01:49:33.944Z,6.10
2019-04-20T01:50:34.984Z,6.40
2019-04-20T01:51:42.926Z,6.50
2019-04-20T01:52:43.820Z,6.70
2019-04-20T01:53:44.232Z,6.70
2019-04-20T01:54:54.622Z,6.70
2019-04-20T01:55:45.713Z,6.70
2019-04-20T01:56:43.659Z,7.20
2019-04-20T01:57:53.415Z,7.00
2019-04-20T01:58:49.140Z,7.20
2019-04-20T01:59:40.258Z,6.90
2019-04-20T02:00:35.653Z,7.60
2019-04-20T02:01:35.450Z,7.50
2019-04-20T02:02:34.399Z,8.80
2019-04-20T02:03:36.967Z,9.80
2019-04-20T02:04:34.382Z,10.10
2019-04-20T02:05:35.158Z,9.60
2019-04-20T02:06:39.262Z,9.60
2019-04-20T02:07:37.311Z,11.00
2019-04-20T02:08:32.328Z,11.40
2019-04-20T02:09:32.597Z,12.20
2019-04-20T02:10:39.299Z,12.60
2019-04-20T02:11:36.179Z,12.40
2019-04-20T02:12:34.604Z,12.70
2019-04-20T02:13:38.578Z,12.10
2019-04-20T02:14:40.502Z,9.90
2019-04-20T02:15:38.665Z,7.70
2019-04-20T02:16:38.268Z,7.50
2019-04-20T02:17:40.227Z,7.50
2019-04-20T02:18:42.410Z,7.40
2019-04-20T02:19:52.433Z,7.40
2019-04-20T02:20:50.277Z,7.40
2019-04-20T02:21:50.235Z,8.10
2019-04-20T02:22:48.707Z,7.00
2019-04-20T02:23:38.735Z,7.20
2019-04-20T02:24:31.930Z,7.50
2019-04-20T02:25:31.163Z,8.00
2019-04-20T02:26:32.255Z,7.70
2019-04-20T02:27:38.557Z,8.20
2019-04-20T02:28:58.959Z,7.70
2019-04-20T02:29:51.638Z,7.10
2019-04-20T02:31:09.528Z,7.00
2019-04-20T02:32:11.986Z,7.90
2019-04-20T02:33:14.145Z,8.00
2019-04-20T02:35:18.623Z,6.70
2019-04-20T02:39:21.095Z,7.50
2019-04-20T02:40:00.364Z,7.20
2019-04-20T02:43:28.458Z,8.40
2019-04-20T02:45:15.174Z,8.80
2019-04-20T02:45:57.457Z,8.10
2019-04-20T02:47:08.132Z,9.20
2019-04-20T02:48:01.493Z,8.80
2019-04-20T02:49:10.090Z,8.90
2019-04-20T02:50:59.231Z,8.90
2019-04-20T02:52:04.327Z,8.90
2019-04-20T02:53:04.457Z,8.70
2019-04-20T02:54:12.916Z,8.30
2019-04-20T02:55:16.954Z,8.20
2019-04-20T02:56:05.786Z,8.40
2019-04-20T02:58:00.719Z,8.10
2019-04-20T02:59:25.069Z,8.30
2019-04-20T03:00:10.320Z,7.80
2019-04-20T03:00:57.132Z,8.40
2019-04-20T03:01:53.460Z,8.00
2019-04-20T03:02:42.941Z,8.70
2019-04-20T03:03:36.507Z,7.30
2019-04-20T03:04:40.240Z,8.30
2019-04-20T03:05:42.326Z,7.60
2019-04-20T03:06:46.704Z,7.70
2019-04-20T03:07:50.459Z,7.30
2019-04-20T03:08:53.265Z,7.10
2019-04-20T03:09:54.240Z,6.90
2019-04-20T03:10:54.518Z,7.60
2019-04-20T03:11:58.267Z,7.30
2019-04-20T03:12:52.239Z,7.60
2019-04-20T03:13:50.647Z,7.40
2019-04-20T03:14:42.389Z,7.40
2019-04-20T03:15:48.567Z,7.80
2019-04-20T03:16:48.576Z,7.40
2019-04-20T03:17:45.786Z,7.60
2019-04-20T03:18:45.553Z,8.30
2019-04-20T03:19:44.818Z,8.30
2019-04-20T03:20:52.831Z,7.60
2019-04-20T03:21:51.385Z,8.30
2019-04-20T03:23:11.641Z,8.50
2019-04-20T03:24:02.202Z,9.40
2019-04-20T03:24:53.991Z,9.10
2019-04-20T03:25:55.650Z,9.20
2019-04-20T03:26:47.507Z,8.70
2019-04-20T03:27:46.150Z,9.60
2019-04-20T03:28:42.987Z,9.10
2019-04-20T03:29:56.644Z,9.20
2019-04-20T03:31:25.086Z,8.90
2019-04-20T03:32:14.621Z,9.20
2019-04-20T03:34:15.283Z,9.70
2019-04-20T03:36:00.403Z,10.50
2019-04-20T03:36:53.519Z,10.30
2019-04-20T03:37:52.642Z,10.60
2019-04-20T03:38:48.283Z,11.00
2019-04-20T03:39:40.537Z,11.30
2019-04-20T03:40:46.725Z,11.90
2019-04-20T03:41:36.733Z,11.40
2019-04-20T03:42:30.863Z,11.80
2019-04-20T03:43:30.795Z,11.90
2019-04-20T03:44:32.910Z,12.20
2019-04-20T03:45:37.452Z,12.80
2019-04-20T03:46:38.275Z,15.10
2019-04-20T03:47:38.403Z,14.50
2019-04-20T03:48:48.298Z,15.00
2019-04-20T03:49:56.022Z,14.40
2019-04-20T03:50:54.096Z,14.00
2019-04-20T03:51:53.454Z,14.80
2019-04-20T03:52:51.415Z,14.90
2019-04-20T03:53:54.357Z,14.30
2019-04-20T03:54:41.604Z,15.30
2019-04-20T03:55:47.501Z,14.80
2019-04-20T03:56:49.562Z,15.00
2019-04-20T03:57:54.217Z,15.50
2019-04-20T03:58:48.271Z,15.60
2019-04-20T03:59:50.921Z,14.80
2019-04-20T04:00:48.469Z,15.00
2019-04-20T04:02:09.261Z,15.60
2019-04-20T04:03:01.566Z,14.30
2019-04-20T04:03:53.400Z,15.70
2019-04-20T04:04:49.472Z,14.80
2019-04-20T04:05:44.608Z,14.60
2019-04-20T04:06:41.677Z,15.10
2019-04-20T04:07:38.117Z,15.70
2019-04-20T04:08:36.364Z,15.70
2019-04-20T04:09:39.717Z,16.30
2019-04-20T04:10:47.891Z,17.60
2019-04-20T04:11:44.603Z,16.60
2019-04-20T04:12:36.391Z,16.40
2019-04-20T04:13:29.809Z,17.40
2019-04-20T04:14:30.463Z,18.10
2019-04-20T04:15:29.793Z,17.80
2019-04-20T04:16:37.258Z,17.50
2019-04-20T04:17:34.953Z,18.20
2019-04-20T04:18:35.332Z,17.10
2019-04-20T04:19:34.792Z,16.30
2019-04-20T04:20:38.778Z,16.90
2019-04-20T04:21:44.730Z,16.60
2019-04-20T04:22:46.247Z,16.50
2019-04-20T04:23:47.395Z,16.50
2019-04-20T04:24:40.315Z,16.30
2019-04-20T04:25:48.005Z,16.60
2019-04-20T04:26:45.330Z,16.80
2019-04-20T04:27:48.876Z,16.10
2019-04-20T04:28:43.312Z,16.50
2019-04-20T04:29:47.179Z,16.10
2019-04-20T04:30:40.303Z,16.30
2019-04-20T04:31:55.368Z,15.50
2019-04-20T04:33:08.809Z,15.90
2019-04-20T04:33:55.753Z,15.40
2019-04-20T04:34:48.939Z,15.60
2019-04-20T04:35:44.377Z,15.70
2019-04-20T04:36:52.316Z,15.10
2019-04-20T04:37:45.873Z,15.30
2019-04-20T04:38:56.087Z,14.70
2019-04-20T04:39:48.810Z,14.70
2019-04-20T04:40:58.361Z,14.70
2019-04-20T04:41:58.219Z,15.30
2019-04-20T04:42:56.428Z,14.40
2019-04-20T04:43:44.419Z,14.40
2019-04-20T04:44:40.132Z,14.20
2019-04-20T04:45:31.691Z,14.90
2019-04-20T04:46:32.980Z,14.10
2019-04-20T04:47:30.401Z,14.60
2019-04-20T04:48:34.995Z,14.30
2019-04-20T04:49:35.196Z,14.50
2019-04-20T04:50:31.451Z,14.70
2019-04-20T04:51:40.307Z,15.00
2019-04-20T04:52:41.880Z,14.10
2019-04-20T04:53:41.950Z,14.40
2019-04-20T04:54:40.041Z,14.20
2019-04-20T04:55:39.224Z,14.20
2019-04-20T04:56:30.827Z,14.80
2019-04-20T04:57:30.442Z,14.30
2019-04-20T04:58:29.799Z,15.20
2019-04-20T04:59:29.684Z,15.10
2019-04-20T05:00:32.589Z,14.80
2019-04-20T05:01:32.752Z,14.40
2019-04-20T05:02:36.226Z,14.90
2019-04-20T05:03:44.987Z,15.10
2019-04-20T05:04:55.135Z,15.50
2019-04-20T05:05:49.359Z,15.30
2019-04-20T05:06:43.413Z,14.80
2019-04-20T05:07:43.852Z,15.50
2019-04-20T05:08:37.757Z,15.50
2019-04-20T05:09:29.692Z,15.70
2019-04-20T05:10:29.261Z,16.00
2019-04-20T05:11:30.038Z,15.50
2019-04-20T05:12:33.074Z,14.90
2019-04-20T05:13:36.999Z,15.20
2019-04-20T05:14:43.211Z,15.10
2019-04-20T05:15:42.399Z,16.10
2019-04-20T05:16:45.133Z,15.10
2019-04-20T05:17:55.272Z,15.30
2019-04-20T05:18:50.239Z,15.60
2019-04-20T05:19:47.782Z,16.50
2019-04-20T05:20:54.755Z,15.80
2019-04-20T05:21:56.562Z,15.90
2019-04-20T05:22:45.758Z,16.00
2019-04-20T05:23:40.977Z,15.90
2019-04-20T05:24:53.630Z,16.70
2019-04-20T05:25:52.629Z,16.10
2019-04-20T05:26:50.072Z,15.70
2019-04-20T05:27:46.684Z,16.20
2019-04-20T05:28:40.740Z,16.30
2019-04-20T05:29:31.695Z,17.10
2019-04-20T05:30:29.068Z,17.00
2019-04-20T05:31:36.069Z,18.50
2019-04-20T05:32:41.356Z,17.90
2019-04-20T05:33:48.580Z,18.20
2019-04-20T05:34:52.823Z,18.90
2019-04-20T05:35:49.934Z,18.50
2019-04-20T05:36:49.345Z,18.30
2019-04-20T05:37:53.668Z,19.00
2019-04-20T05:39:10.528Z,19.60
2019-04-20T05:39:50.932Z,18.50
2019-04-20T05:40:50.499Z,18.60
2019-04-20T05:41:45.335Z,18.10
2019-04-20T05:42:49.906Z,17.40
2019-04-20T05:43:46.778Z,16.90
2019-04-20T05:44:52.795Z,17.20
2019-04-20T05:45:42.783Z,16.50
2019-04-20T05:46:48.179Z,17.00
2019-04-20T05:47:48.553Z,15.80
2019-04-20T05:48:50.726Z,16.40
2019-04-20T05:49:45.379Z,17.10
2019-04-20T05:50:49.408Z,16.20
2019-04-20T05:51:47.655Z,16.20
2019-04-20T05:52:59.769Z,16.90
2019-04-20T05:53:50.086Z,17.00
2019-04-20T05:54:51.422Z,16.80
2019-04-20T05:55:51.559Z,17.50
2019-04-20T05:56:50.083Z,17.20
2019-04-20T05:57:50.448Z,16.20
2019-04-20T05:58:50.768Z,16.10
2019-04-20T05:59:55.933Z,14.90
2019-04-20T06:00:55.052Z,14.40
2019-04-20T06:01:55.858Z,12.10
2019-04-20T06:02:49.473Z,12.70
2019-04-20T06:03:44.690Z,12.60
2019-04-20T06:05:00.370Z,14.60
2019-04-20T06:05:53.681Z,14.50
2019-04-20T06:06:49.792Z,14.50
2019-04-20T06:07:48.817Z,13.00
2019-04-20T06:08:53.945Z,13.20
2019-04-20T06:09:57.281Z,13.10
2019-04-20T06:10:49.409Z,14.00
2019-04-20T06:12:02.961Z,12.70
2019-04-20T06:12:49.893Z,12.80
2019-04-20T06:13:43.122Z,13.20
2019-04-20T06:14:43.151Z,13.40
2019-04-20T06:15:51.728Z,11.90
2019-04-20T06:16:50.013Z,12.50
2019-04-20T06:17:49.279Z,12.80
2019-04-20T06:18:40.090Z,12.50
2019-04-20T06:19:45.452Z,12.20
2019-04-20T06:20:50.201Z,12.40
2019-04-20T06:21:52.882Z,12.80
2019-04-20T06:22:51.370Z,12.60
2019-04-20T06:23:53.146Z,13.00
2019-04-20T06:24:57.250Z,12.30
2019-04-20T06:26:53.848Z,12.30
2019-04-20T06:27:55.336Z,13.10
2019-04-20T06:28:45.080Z,12.90
2019-04-20T06:29:45.764Z,14.00
2019-04-20T06:30:41.435Z,12.90
2019-04-20T06:31:48.633Z,12.40
2019-04-20T06:32:44.731Z,13.40
2019-04-20T06:34:08.856Z,12.90
2019-04-20T06:34:45.040Z,12.90
2019-04-20T06:36:18.240Z,12.80
2019-04-20T06:37:54.919Z,12.80
2019-04-20T06:38:57.440Z,12.50
2019-04-20T06:41:00.620Z,14.00
2019-04-20T06:42:48.344Z,13.10
2019-04-20T06:43:54.262Z,13.10
2019-04-20T06:45:04.739Z,11.80
2019-04-20T06:46:01.997Z,13.00
2019-04-20T06:46:59.105Z,12.10
2019-04-20T06:47:52.100Z,12.80
2019-04-20T06:48:52.295Z,12.40
2019-04-20T06:50:07.453Z,12.00
2019-04-20T06:50:44.754Z,12.00
2019-04-20T06:51:47.360Z,12.20
2019-04-20T06:52:45.368Z,13.00
2019-04-20T06:53:46.935Z,12.90
2019-04-20T06:54:48.630Z,12.70
2019-04-20T06:55:51.697Z,12.30
2019-04-20T06:56:52.502Z,12.90
2019-04-20T06:58:02.805Z,12.10
2019-04-20T06:58:49.773Z,12.20
2019-04-20T06:59:45.875Z,12.50
2019-04-20T07:00:53.331Z,12.50
2019-04-20T07:01:56.407Z,12.70
2019-04-20T07:03:01.897Z,11.20
2019-04-20T07:05:10.055Z,12.30
2019-04-20T07:06:01.882Z,13.20
2019-04-20T07:06:59.172Z,13.00
2019-04-20T07:07:54.587Z,13.40
2019-04-20T07:08:56.483Z,13.60
2019-04-20T07:10:53.170Z,14.00
2019-04-20T07:11:46.687Z,13.30
2019-04-20T07:12:45.070Z,13.40
2019-04-20T07:13:39.207Z,13.60
2019-04-20T07:14:41.413Z,13.20
2019-04-20T07:15:40.240Z,13.50
2019-04-20T07:16:45.122Z,13.40
2019-04-20T07:17:55.030Z,13.70
2019-04-20T07:18:49.708Z,13.20
2019-04-20T07:19:44.405Z,13.80
2019-04-20T07:20:55.427Z,14.20
2019-04-20T07:22:02.319Z,13.80
2019-04-20T07:23:08.216Z,14.20
2019-04-20T07:23:56.089Z,14.40
2019-04-20T07:24:48.875Z,14.90
2019-04-20T07:25:47.378Z,14.40
2019-04-20T07:26:54.186Z,14.80
2019-04-20T07:27:49.341Z,14.60
2019-04-20T07:28:55.247Z,14.30
2019-04-20T07:29:53.391Z,15.00
2019-04-20T07:30:52.155Z,13.90
2019-04-20T07:31:44.200Z,14.50
2019-04-20T07:32:52.458Z,14.10
2019-04-20T07:33:46.455Z,13.80
2019-04-20T07:34:51.557Z,15.40
2019-04-20T07:35:46.457Z,14.80
2019-04-20T07:37:04.052Z,15.10
2019-04-20T07:38:10.394Z,14.50
2019-04-20T07:39:03.972Z,15.20
2019-04-20T07:39:48.214Z,14.40
2019-04-20T07:40:44.439Z,14.80
2019-04-20T07:41:54.648Z,16.20
2019-04-20T07:42:53.833Z,14.60
2019-04-20T07:44:01.683Z,15.40
2019-04-20T07:44:56.699Z,15.40
2019-04-20T07:45:46.696Z,15.20
2019-04-20T07:47:08.460Z,15.40
2019-04-20T07:48:07.441Z,16.00
2019-04-20T07:48:49.397Z,15.70
2019-04-20T07:49:45.686Z,16.50
2019-04-20T07:50:40.706Z,15.60
2019-04-20T07:51:33.956Z,15.70
2019-04-20T07:52:39.618Z,15.90
2019-04-20T07:53:40.336Z,16.30
2019-04-20T07:55:08.176Z,15.40
2019-04-20T07:55:50.779Z,16.10
2019-04-20T07:56:47.670Z,16.20
2019-04-20T07:57:42.945Z,16.70
2019-04-20T07:58:38.067Z,17.00
2019-04-20T07:59:46.835Z,16.70
2019-04-20T08:00:55.148Z,16.70
2019-04-20T08:01:52.651Z,16.90
2019-04-20T08:02:50.254Z,17.30
2019-04-20T08:03:50.404Z,17.30
2019-04-20T08:04:43.485Z,17.70
2019-04-20T08:05:39.232Z,16.30
2019-04-20T08:06:36.785Z,16.80
2019-04-20T08:07:39.305Z,17.40
2019-04-20T08:08:45.173Z,17.20
2019-04-20T08:09:38.056Z,17.40
2019-04-20T08:10:40.682Z,16.20
2019-04-20T08:11:50.835Z,17.60
2019-04-20T08:12:54.119Z,16.70
2019-04-20T08:13:51.332Z,16.10
2019-04-20T08:15:01.485Z,17.20
2019-04-20T08:15:49.174Z,16.90
2019-04-20T08:16:58.708Z,16.50
2019-04-20T08:17:50.980Z,16.40
2019-04-20T08:18:49.915Z,17.50
2019-04-20T08:19:47.291Z,16.50
2019-04-20T08:20:51.030Z,17.40
2019-04-20T08:21:48.595Z,16.70
2019-04-20T08:23:48.872Z,17.20
2019-04-20T08:24:42.866Z,15.80
2019-04-20T08:25:39.638Z,16.40
2019-04-20T08:26:32.485Z,15.90
2019-04-20T08:27:27.652Z,16.30
2019-04-20T08:28:35.866Z,16.40
2019-04-20T08:29:42.734Z,16.40
2019-04-20T08:30:41.390Z,17.70
2019-04-20T08:31:40.656Z,18.20
2019-04-20T08:32:43.519Z,17.50
2019-04-20T08:33:55.102Z,18.70
2019-04-20T08:34:49.056Z,18.40
2019-04-20T08:35:53.976Z,17.50
2019-04-20T08:36:52.516Z,19.00
2019-04-20T08:38:03.582Z,18.70
2019-04-20T08:40:50.319Z,18.40
2019-04-20T08:41:54.775Z,18.70
2019-04-20T08:42:57.385Z,18.60
2019-04-20T08:45:01.140Z,18.40
2019-04-20T08:45:53.462Z,17.70
2019-04-20T08:47:01.843Z,17.60
2019-04-20T08:47:53.323Z,18.80
2019-04-20T08:48:46.943Z,18.00
2019-04-20T08:49:51.929Z,17.80
2019-04-20T08:50:45.313Z,18.40
2019-04-20T08:51:56.849Z,18.40
2019-04-20T08:53:46.575Z,18.00
2019-04-20T08:54:43.108Z,19.30
2019-04-20T08:55:42.124Z,19.30
2019-04-20T08:56:36.139Z,18.20
2019-04-20T08:57:27.118Z,19.30
2019-04-20T08:58:27.275Z,18.80
2019-04-20T08:59:26.924Z,19.10
2019-04-20T09:00:33.098Z,19.50
2019-04-20T09:01:30.894Z,20.10
2019-04-20T09:02:27.958Z,19.00
2019-04-20T09:03:32.648Z,19.30
2019-04-20T09:04:37.292Z,19.30
2019-04-20T09:05:41.560Z,19.80
2019-04-20T09:06:41.765Z,19.40
2019-04-20T09:07:30.019Z,18.90
2019-04-20T09:08:36.684Z,19.00
2019-04-20T09:09:49.414Z,17.90
2019-04-20T09:10:45.487Z,18.50
2019-04-20T09:11:50.523Z,19.10
2019-04-20T09:12:39.495Z,18.80
2019-04-20T09:13:34.279Z,18.90
2019-04-20T09:14:28.222Z,19.20
2019-04-20T09:15:27.827Z,18.80
2019-04-20T09:16:37.083Z,18.40
2019-04-20T09:17:35.590Z,18.70
2019-04-20T09:18:34.388Z,17.90
2019-04-20T09:19:36.533Z,18.90
2019-04-20T09:20:37.030Z,18.70
2019-04-20T09:21:37.943Z,18.00
2019-04-20T09:22:34.159Z,17.40
2019-04-20T09:23:42.446Z,19.10
2019-04-20T09:24:52.726Z,18.50
2019-04-20T09:25:57.917Z,18.20
2019-04-20T09:26:43.186Z,18.30
2019-04-20T09:27:36.228Z,18.00
2019-04-20T09:28:35.405Z,18.20
2019-04-20T09:29:37.219Z,18.00
2019-04-20T09:30:37.477Z,17.80
2019-04-20T09:31:39.237Z,17.80
2019-04-20T09:32:39.653Z,17.40
2019-04-20T09:33:40.143Z,18.00
2019-04-20T09:34:46.695Z,17.20
2019-04-20T09:35:44.384Z,17.40
2019-04-20T09:36:40.344Z,17.30
2019-04-20T09:37:43.550Z,17.40
2019-04-20T09:38:41.402Z,16.70
2019-04-20T09:39:33.962Z,17.50
2019-04-20T09:40:51.009Z,17.00
2019-04-20T09:41:47.157Z,17.20
2019-04-20T09:42:26.502Z,17.60
2019-04-20T09:43:26.473Z,18.00
2019-04-20T09:44:33.669Z,17.50
2019-04-20T09:45:33.945Z,16.70
2019-04-20T09:46:26.471Z,16.60
2019-04-20T09:47:33.903Z,15.90
2019-04-20T09:48:36.861Z,16.70
2019-04-20T09:49:40.979Z,16.10
2019-04-20T09:50:43.791Z,16.60
2019-04-20T09:51:46.708Z,15.90
2019-04-20T09:52:39.933Z,17.10
2019-04-20T09:53:39.274Z,17.20
2019-04-20T09:54:48.115Z,15.60
2019-04-20T09:55:36.323Z,16.00
2019-04-20T09:56:39.798Z,16.70
2019-04-20T09:57:43.794Z,17.00
2019-04-20T09:58:45.183Z,16.60
2019-04-20T09:59:45.037Z,16.70
2019-04-20T10:00:44.026Z,16.50
2019-04-20T10:01:37.682Z,16.70
2019-04-20T10:02:29.889Z,16.40
2019-04-20T10:03:26.842Z,16.60
2019-04-20T10:04:26.249Z,16.30
2019-04-20T10:05:27.386Z,17.10
2019-04-20T10:06:30.131Z,16.50
2019-04-20T10:07:30.775Z,17.50
2019-04-20T10:08:26.240Z,16.60
2019-04-20T10:09:31.300Z,16.90
2019-04-20T10:10:32.318Z,17.20
2019-04-20T10:11:26.151Z,16.70
2019-04-20T10:12:26.143Z,17.00
2019-04-20T10:13:27.145Z,16.70
2019-04-20T10:14:26.912Z,17.10
2019-04-20T10:15:27.910Z,16.80
2019-04-20T10:16:26.121Z,16.50
2019-04-20T10:17:28.546Z,16.10
2019-04-20T10:18:26.072Z,15.80
2019-04-20T10:19:30.932Z,16.50
2019-04-20T10:20:30.923Z,16.70
2019-04-20T10:21:26.062Z,16.90
2019-04-20T10:22:26.745Z,17.10
2019-04-20T10:23:26.876Z,16.50
2019-04-20T10:24:26.453Z,16.00
2019-04-20T10:25:26.671Z,16.00
2019-04-20T10:26:26.986Z,16.20
2019-04-20T10:27:26.455Z,16.30
2019-04-20T10:28:25.986Z,15.60
2019-04-20T10:29:25.982Z,15.70
2019-04-20T10:30:26.309Z,16.70
2019-04-20T10:31:26.487Z,16.40
2019-04-20T10:32:36.399Z,15.40
2019-04-20T10:33:25.925Z,15.90
2019-04-20T10:34:26.403Z,15.70
2019-04-20T10:35:25.893Z,15.10
2019-04-20T10:36:25.894Z,16.30
2019-04-20T10:37:27.148Z,16.20
2019-04-20T10:38:25.881Z,15.70
2019-04-20T10:39:26.644Z,14.70
2019-04-20T10:40:38.089Z,16.80
2019-04-20T10:41:36.034Z,16.10
2019-04-20T10:42:26.089Z,16.00
2019-04-20T10:43:26.054Z,16.70
2019-04-20T10:44:27.099Z,16.50
2019-04-20T10:45:26.790Z,16.00
2019-04-20T10:46:26.830Z,16.20
2019-04-20T10:47:27.192Z,15.70
2019-04-20T10:48:26.946Z,15.30
2019-04-20T10:49:27.042Z,16.40
2019-04-20T10:50:27.077Z,16.60
2019-04-20T10:51:25.922Z,17.20
2019-04-20T10:52:25.794Z,16.50
2019-04-20T10:53:25.966Z,16.30
2019-04-20T10:54:26.682Z,17.10
2019-04-20T10:55:27.148Z,17.40
2019-04-20T10:56:25.727Z,17.00
2019-04-20T10:57:25.812Z,16.60
2019-04-20T10:58:25.682Z,17.00
2019-04-20T10:59:25.797Z,16.80
2019-04-20T11:00:25.745Z,16.40
2019-04-20T11:01:25.644Z,16.10
2019-04-20T11:02:25.873Z,17.30
2019-04-20T11:03:26.736Z,16.80
2019-04-20T11:04:26.310Z,17.10
2019-04-20T11:05:26.526Z,17.50
2019-04-20T11:06:26.784Z,16.80
2019-04-20T11:07:26.475Z,17.30
2019-04-20T11:08:26.538Z,16.30
2019-04-20T11:09:26.799Z,14.90
2019-04-20T11:10:28.948Z,14.30
2019-04-20T11:11:28.666Z,15.20
2019-04-20T11:12:26.265Z,15.30
2019-04-20T11:13:25.651Z,14.30
2019-04-20T11:14:31.182Z,14.60
2019-04-20T11:15:26.244Z,15.20
2019-04-20T11:16:26.398Z,14.50
2019-04-20T11:17:28.508Z,14.60
2019-04-20T11:18:25.460Z,13.90
2019-04-20T11:19:25.475Z,14.70
2019-04-20T11:20:25.603Z,14.60
2019-04-20T11:21:26.247Z,13.50
2019-04-20T11:22:26.266Z,14.40
2019-04-20T11:23:26.513Z,14.40
2019-04-20T11:24:26.046Z,13.30
2019-04-20T11:25:26.200Z,14.90
2019-04-20T11:26:26.415Z,14.30
2019-04-20T11:27:25.839Z,13.00
2019-04-20T11:28:26.193Z,14.00
2019-04-20T11:29:26.398Z,15.20
2019-04-20T11:30:25.909Z,14.30
2019-04-20T11:31:26.845Z,15.00
2019-04-20T11:32:26.239Z,14.20
2019-04-20T11:33:25.326Z,14.10
2019-04-20T11:34:28.519Z,13.30
2019-04-20T11:35:32.176Z,14.00
2019-04-20T11:36:25.334Z,14.00
2019-04-20T11:37:25.302Z,14.30
2019-04-20T11:38:26.137Z,13.80
2019-04-20T11:39:25.270Z,13.70
2019-04-20T11:40:26.426Z,13.60
2019-04-20T11:41:27.472Z,13.40
2019-04-20T11:42:25.709Z,13.20
2019-04-20T11:43:26.075Z,14.00
2019-04-20T11:44:27.831Z,13.10
2019-04-20T11:45:25.219Z,12.30
2019-04-20T11:46:25.183Z,12.70
2019-04-20T11:47:25.202Z,12.60
2019-04-20T11:48:25.442Z,12.40
2019-04-20T11:49:25.724Z,11.60
2019-04-20T11:50:25.325Z,11.40
2019-04-20T11:51:25.526Z,11.20
2019-04-20T11:52:26.504Z,10.80
2019-04-20T11:53:26.653Z,10.80
2019-04-20T11:54:26.363Z,11.20
2019-04-20T11:55:26.531Z,10.20
2019-04-20T11:56:29.263Z,10.60
2019-04-20T11:57:25.143Z,10.30
2019-04-20T11:58:26.103Z,9.60
2019-04-20T11:59:25.356Z,9.80
2019-04-20T12:00:25.300Z,9.70
2019-04-20T12:01:29.047Z,9.70
2019-04-20T12:02:30.142Z,10.40
2019-04-20T12:03:35.357Z,10.00
2019-04-20T12:04:33.769Z,10.50
2019-04-20T12:05:35.661Z,10.40
2019-04-20T12:06:26.473Z,9.10
2019-04-20T12:07:25.043Z,9.80
2019-04-20T12:08:25.150Z,9.50
2019-04-20T12:09:26.181Z,10.40
2019-04-20T12:10:26.412Z,9.50
2019-04-20T12:11:36.435Z,9.70
2019-04-20T12:12:34.933Z,9.50
2019-04-20T12:13:24.997Z,9.20
2019-04-20T12:14:24.985Z,8.80
2019-04-20T12:15:25.012Z,8.00
2019-04-20T12:16:25.706Z,8.50
2019-04-20T12:17:25.953Z,7.30
2019-04-20T12:18:25.389Z,7.30
2019-04-20T12:19:24.957Z,7.90
2019-04-20T12:20:25.073Z,7.70
2019-04-20T12:21:24.922Z,7.50
2019-04-20T12:22:26.137Z,8.10
2019-04-20T12:23:26.409Z,7.80
2019-04-20T12:24:24.910Z,7.30
2019-04-20T12:25:25.908Z,7.30
2019-04-20T12:26:24.970Z,7.90
2019-04-20T12:27:25.022Z,7.10
2019-04-20T12:28:25.372Z,7.00
2019-04-20T12:29:25.813Z,7.70
2019-04-20T12:30:25.853Z,7.30
2019-04-20T12:31:27.584Z,7.10
2019-04-20T12:32:29.528Z,7.10
2019-04-20T12:33:26.285Z,6.00
2019-04-20T12:34:24.874Z,6.20
2019-04-20T12:35:24.862Z,6.10
2019-04-20T12:36:25.971Z,6.50
2019-04-20T12:37:25.044Z,5.90
2019-04-20T12:38:25.256Z,6.00
2019-04-20T12:39:24.957Z,6.60
2019-04-20T12:40:25.827Z,7.40
2019-04-20T12:41:34.414Z,6.50
2019-04-20T12:42:25.365Z,7.10
2019-04-20T12:43:25.531Z,6.20
2019-04-20T12:44:25.734Z,6.10
2019-04-20T12:45:25.841Z,5.80
2019-04-20T12:46:25.196Z,6.10
2019-04-20T12:47:25.744Z,6.70
2019-04-20T12:48:25.896Z,6.80
2019-04-20T12:49:25.419Z,6.30
2019-04-20T12:50:25.677Z,6.60
2019-04-20T12:51:33.171Z,6.40
2019-04-20T12:52:26.205Z,6.40
2019-04-20T12:53:24.760Z,6.40
2019-04-20T12:54:24.899Z,6.20
2019-04-20T12:55:24.757Z,6.10
2019-04-20T12:56:24.779Z,6.40
2019-04-20T12:57:24.820Z,6.40
2019-04-20T12:58:24.726Z,6.20
2019-04-20T12:59:25.560Z,6.70
2019-04-20T13:00:25.662Z,5.60
2019-04-20T13:01:25.832Z,5.70
2019-04-20T13:02:25.127Z,5.30
2019-04-20T13:03:25.571Z,5.80
2019-04-20T13:04:24.760Z,6.00
2019-04-20T13:05:25.566Z,5.20
2019-04-20T13:06:25.801Z,5.60
2019-04-20T13:07:24.773Z,6.10
2019-04-20T13:08:30.345Z,6.20
2019-04-20T13:09:24.720Z,5.60
2019-04-20T13:10:25.408Z,5.70
2019-04-20T13:11:24.782Z,5.30
2019-04-20T13:12:26.487Z,5.40
2019-04-20T13:13:25.955Z,5.60
2019-04-20T13:14:24.656Z,5.70
2019-04-20T13:15:24.673Z,5.10
2019-04-20T13:16:26.066Z,5.50
2019-04-20T13:17:24.635Z,5.40
2019-04-20T13:18:25.375Z,5.10
2019-04-20T13:19:24.677Z,5.40
2019-04-20T13:20:25.799Z,5.20
2019-04-20T13:21:25.055Z,4.90
2019-04-20T13:22:25.323Z,5.60
2019-04-20T13:23:24.783Z,4.90